createdAt,value
2019-02-18T00:04:22.246Z,101480.64
2019-02-18T00:10:28.083Z,101474.31
2019-02-18T00:16:33.841Z,101476.72
2019-02-18T00:22:39.558Z,101479.34
2019-02-18T00:28:45.333Z,101477.47
2019-02-18T00:34:51.328Z,101487.86
2019-02-18T00:40:57.326Z,101476.33
2019-02-18T00:47:03.196Z,101487.64
2019-02-18T00:53:09.059Z,101481.30
2019-02-18T00:59:14.861Z,101489.55
2019-02-18T01:05:21.063Z,101485.91
2019-02-18T01:11:27.001Z,101483.98
2019-02-18T01:17:33.054Z,101484.84
2019-02-18T01:23:38.760Z,101484.66
2019-02-18T01:29:44.478Z,101480.05
2019-02-18T01:35:50.280Z,101473.87
2019-02-18T01:41:56.283Z,101477.22
2019-02-18T01:48:02.156Z,101478.39
2019-02-18T01:54:07.843Z,101469.50
2019-02-18T02:00:16.066Z,101467.98
2019-02-18T02:06:22.162Z,101470.87
2019-02-18T02:12:27.986Z,101459.76
2019-02-18T02:18:33.953Z,101456.48
2019-02-18T02:24:39.746Z,101457.30
2019-02-18T02:30:46.432Z,101462.81
2019-02-18T02:36:52.747Z,101455.83
2019-02-18T02:42:59.520Z,101449.98
2019-02-18T02:49:05.431Z,101444.55
2019-02-18T02:55:11.270Z,101439.96
2019-02-18T03:01:16.989Z,101438.66
2019-02-18T03:07:23.031Z,101439.03
2019-02-18T03:13:28.872Z,101436.80
2019-02-18T03:19:34.736Z,101436.73
2019-02-18T03:25:40.983Z,101440.00
2019-02-18T03:31:46.756Z,101429.04
2019-02-18T03:37:52.495Z,101429.75
2019-02-18T03:43:58.354Z,101420.45
2019-02-18T03:50:04.093Z,101427.29
2019-02-18T03:56:09.803Z,101424.63
2019-02-18T04:02:15.493Z,101421.99
2019-02-18T04:08:21.202Z,101419.76
2019-02-18T04:14:27.023Z,101410.51
2019-02-18T04:20:32.794Z,101413.37
2019-02-18T04:26:41.826Z,101410.59
2019-02-18T04:32:47.776Z,101417.86
2019-02-18T04:38:54.407Z,101410.77
2019-02-18T04:45:00.747Z,101414.69
2019-02-18T04:51:06.944Z,101419.09
2019-02-18T04:57:12.780Z,101415.17
2019-02-18T05:03:18.486Z,101420.67
2019-02-18T05:09:24.551Z,101417.94
2019-02-18T05:15:30.531Z,101416.13
2019-02-18T05:21:36.415Z,101410.77
2019-02-18T05:27:42.240Z,101413.33
2019-02-18T05:33:48.120Z,101405.66
2019-02-18T05:39:55.453Z,101401.80
2019-02-18T05:46:01.951Z,101408.41
2019-02-18T05:52:07.938Z,101402.30
2019-02-18T05:58:14.229Z,101401.95
2019-02-18T06:04:20.140Z,101400.70
2019-02-18T06:10:26.091Z,101399.82
2019-02-18T06:16:31.996Z,101400.33
2019-02-18T06:22:38.827Z,101395.22
2019-02-18T06:28:44.716Z,101392.03
2019-02-18T06:34:50.569Z,101382.91
2019-02-18T06:40:58.221Z,101376.30
2019-02-18T06:47:08.652Z,101374.12
2019-02-18T06:53:14.445Z,101375.42
2019-02-18T06:59:27.962Z,101377.30
2019-02-18T07:05:44.519Z,101381.70
2019-02-18T07:11:55.760Z,101385.75
2019-02-18T07:18:01.725Z,101396.06
2019-02-18T07:24:07.677Z,101392.16
2019-02-18T07:30:16.496Z,101403.66
2019-02-18T07:36:22.669Z,101388.89
2019-02-18T07:42:29.950Z,101385.42
2019-02-18T07:48:36.791Z,101392.28
2019-02-18T07:54:42.839Z,101387.88
2019-02-18T08:00:48.682Z,101387.00
2019-02-18T08:06:54.445Z,101386.00
2019-02-18T08:13:00.280Z,101377.50
2019-02-18T08:19:06.419Z,101380.90
2019-02-18T08:25:12.202Z,101374.75
2019-02-18T08:31:17.975Z,101374.56
2019-02-18T08:37:23.800Z,101369.98
2019-02-18T08:43:30.052Z,101368.08
2019-02-18T08:49:35.815Z,101362.17
2019-02-18T08:55:41.703Z,101365.06
2019-02-18T09:01:47.380Z,101351.32
2019-02-18T09:07:53.275Z,101349.38
2019-02-18T09:13:59.168Z,101344.78
2019-02-18T09:20:04.967Z,101340.12
2019-02-18T09:26:12.174Z,101342.59
2019-02-18T09:32:18.032Z,101334.90
2019-02-18T09:38:25.215Z,101327.56
2019-02-18T09:44:31.514Z,101332.11
2019-02-18T09:50:37.542Z,101333.60
2019-02-18T09:56:43.406Z,101330.72
2019-02-18T10:02:49.400Z,101333.06
2019-02-18T10:08:55.444Z,101332.26
2019-02-18T10:15:01.290Z,101324.42
2019-02-18T10:21:07.147Z,101320.53
2019-02-18T10:27:13.123Z,101309.61
2019-02-18T10:33:18.869Z,101304.83
2019-02-18T10:39:24.904Z,101297.84
2019-02-18T10:45:30.585Z,101292.59
2019-02-18T10:51:36.427Z,101285.97
2019-02-18T10:57:42.762Z,101282.02
2019-02-18T11:03:48.725Z,101281.17
2019-02-18T11:09:54.533Z,101272.78
2019-02-18T11:16:00.257Z,101273.20
2019-02-18T11:22:05.952Z,101268.73
2019-02-18T11:28:12.493Z,101260.34
2019-02-18T11:34:18.371Z,101251.47
2019-02-18T11:40:24.149Z,101239.55
2019-02-18T11:46:30.426Z,101244.75
2019-02-18T11:52:36.396Z,101230.54
2019-02-18T11:58:42.248Z,101219.89
2019-02-18T12:04:48.329Z,101205.26
2019-02-18T12:10:54.448Z,101204.73
2019-02-18T12:17:00.501Z,101194.88
2019-02-18T12:23:06.864Z,101190.81
2019-02-18T12:29:12.735Z,101179.65
2019-02-18T12:35:18.473Z,101168.08
2019-02-18T12:41:25.182Z,101163.99
2019-02-18T12:47:30.880Z,101151.09
2019-02-18T12:53:36.771Z,101141.71
2019-02-18T12:59:42.759Z,101131.49
2019-02-18T13:05:49.238Z,101116.73
2019-02-18T13:24:09.915Z,101079.28
2019-02-18T13:30:17.456Z,101071.64
2019-02-18T13:36:24.143Z,101065.30
2019-02-18T13:42:30.026Z,101048.39
2019-02-18T13:48:38.152Z,101042.52
2019-02-18T13:54:44.630Z,101035.77
2019-02-18T14:00:50.656Z,101020.61
2019-02-18T14:06:56.647Z,101010.23
2019-02-18T14:13:02.601Z,101010.03
2019-02-18T14:19:08.524Z,101001.91
2019-02-18T14:25:15.222Z,101002.62
2019-02-18T14:31:21.328Z,100997.58
2019-02-18T14:37:27.104Z,100994.44
2019-02-18T14:43:32.978Z,100990.84
2019-02-18T14:49:38.820Z,100997.34
2019-02-18T14:55:44.784Z,100991.13
2019-02-18T15:01:50.784Z,100988.78
2019-02-18T15:07:56.810Z,100982.69
2019-02-18T15:14:02.697Z,100983.65
2019-02-18T15:20:09.172Z,100979.75
2019-02-18T15:26:16.092Z,100974.08
2019-02-18T15:32:22.677Z,100981.10
2019-02-18T15:38:28.628Z,100977.90
2019-02-18T15:44:35.291Z,100977.29
2019-02-18T15:50:41.793Z,100959.84
2019-02-18T15:56:47.617Z,100959.30
2019-02-18T16:02:53.529Z,100959.09
2019-02-18T16:08:59.474Z,100954.80
2019-02-18T16:15:07.264Z,100952.28
2019-02-18T16:21:13.393Z,100946.54
2019-02-18T16:27:19.496Z,100952.67
2019-02-18T16:33:25.527Z,100949.98
2019-02-18T16:39:31.514Z,100949.95
2019-02-18T16:45:38.137Z,100960.78
2019-02-18T16:51:44.727Z,100963.19
2019-02-18T16:57:50.567Z,100970.34
2019-02-18T17:03:56.296Z,100965.25
2019-02-18T17:10:02.234Z,100973.44
2019-02-18T17:16:09.391Z,100966.61
2019-02-18T17:22:15.201Z,100965.03
2019-02-18T17:28:21.328Z,100959.50
2019-02-18T17:34:27.048Z,100962.33
2019-02-18T17:40:33.590Z,100969.03
2019-02-18T17:46:39.523Z,100971.77
2019-02-18T17:52:46.220Z,100982.01
2019-02-18T17:58:54.430Z,100979.44
2019-02-18T18:05:00.269Z,100978.65
2019-02-18T18:11:06.249Z,100978.72
2019-02-18T18:17:12.311Z,100992.88
2019-02-18T18:23:18.230Z,100990.30
2019-02-18T18:29:24.522Z,100998.69
2019-02-18T18:35:30.378Z,101004.01
2019-02-18T18:41:36.136Z,101007.12
2019-02-18T18:47:44.459Z,101006.28
2019-02-18T18:53:50.360Z,101004.11
2019-02-18T18:59:56.152Z,101014.67
2019-02-18T19:06:01.928Z,101016.45
2019-02-18T19:12:07.694Z,101019.55
2019-02-18T19:18:13.514Z,101022.22
2019-02-18T19:24:19.326Z,101021.80
2019-02-18T19:30:27.402Z,101028.39
2019-02-18T19:36:33.334Z,101034.10
2019-02-18T19:42:39.108Z,101035.85
2019-02-18T19:48:44.942Z,101033.23
2019-02-18T19:54:50.843Z,101046.39
2019-02-18T20:00:57.001Z,101046.81
2019-02-18T20:07:03.030Z,101048.56
2019-02-18T20:13:08.759Z,101053.38
2019-02-18T20:19:14.835Z,101044.11
2019-02-18T20:25:20.600Z,101043.23
2019-02-18T20:31:26.686Z,101042.31
2019-02-18T20:37:33.024Z,101049.78
2019-02-18T20:43:38.770Z,101051.94
2019-02-18T20:49:44.944Z,101050.61
2019-02-18T20:55:50.727Z,101053.67
2019-02-18T21:01:56.601Z,101052.77
2019-02-18T21:08:02.757Z,101047.48
2019-02-18T21:14:15.895Z,101057.53
2019-02-18T21:20:16.483Z,101059.70
2019-02-18T21:26:23.078Z,101059.21
2019-02-18T21:32:29.196Z,101062.22
2019-02-18T21:38:54.026Z,101063.94
2019-02-18T21:45:00.321Z,101055.55
2019-02-18T21:51:06.160Z,101049.38
2019-02-18T21:57:12.205Z,101052.89
2019-02-18T22:03:18.729Z,101055.52
2019-02-18T22:09:24.596Z,101053.34
2019-02-18T22:15:30.834Z,101056.39
2019-02-18T22:21:36.938Z,101050.17
2019-02-18T22:27:43.284Z,101054.08
2019-02-18T22:33:49.125Z,101048.80
2019-02-18T22:39:55.126Z,101053.58
2019-02-18T22:46:01.522Z,101055.73
2019-02-18T22:52:07.400Z,101053.98
2019-02-18T22:58:13.250Z,101054.80
2019-02-18T23:04:19.253Z,101053.50
2019-02-18T23:10:25.418Z,101053.05
2019-02-18T23:16:31.545Z,101053.50
2019-02-18T23:22:37.379Z,101048.22
2019-02-18T23:28:43.518Z,101049.08
2019-02-18T23:34:49.691Z,101055.19
2019-02-18T23:40:55.539Z,101042.92
2019-02-18T23:47:01.423Z,101040.23
2019-02-18T23:53:07.624Z,101050.28
2019-02-18T23:59:13.585Z,101049.84
